首页
METAR-TAF:

METAR-TAF

机场 :

莱昂, 西班牙

纬度: 42-35N, 经度: 005-39W, 海拔: 926米

当前天气观测

该预报发布于15分钟前的01:00 UTC
风速3节,风向
温度 2°C
湿度 100%
气压 1023 hPa
能见度10公里或以上

METAR: LELN 130100Z AUTO 35003KT 9999 NCD 02/02 Q1023

时间: 02:15 (01:15 UTC)

预报

该预报发布于8小时和15分钟前的17:00 UTC
预报有效从12日的 18点(UTC)到 13日的 03点(UTC)
风速5节,风向多变
能见度10公里或以上
散云层高于1500英尺

TAF: LELN 121700Z 1218/1303 VRB05KT 9999 SCT015

超过4000个机场的气象观测和天气预报(METAR&TAF报告)。

可查询的气象台以黄色和红色小点在地图上表示。

将鼠标移到小点上方,可查看气象台名称。

然后点击查看天气观测和预报。

如需切换地图:点击带黑十字的绿色按钮放大地图;点击带横线的绿色按钮缩小地图;或者点击绿色箭头查看邻近地区的地图。


METAR-TAF: